Time;durP1;ratioP1;P1;durP2;ratioP2;P2;SDS_P1;SDS_P2;PMS_P1;PMS_P2;Temp;Humidity;BMP_temperature;BMP_pressure;BME280_temperature;BME280_humidity;BME280_pressure;Samples;Min_cycle;Max_cycle;Signal;HPM_P1;HPM_P2
2022/08/19 00:01:46;;;;;;;3.70;1.55;;;20.10;99.90;;;;;;4986375;28;20082;-60
2022/08/19 00:04:21;;;;;;;6.68;1.67;;;20.10;99.90;;;;;;4987511;28;20054;-62
2022/08/19 00:06:48;;;;;;;4.93;1.88;;;20.10;99.90;;;;;;4987052;28;20054;-62
2022/08/19 00:09:16;;;;;;;4.75;1.63;;;20.20;99.90;;;;;;4987075;28;20050;-61
2022/08/19 00:11:43;;;;;;;3.10;1.60;;;20.30;99.90;;;;;;4987689;28;20134;-61
2022/08/19 00:14:11;;;;;;;8.13;1.55;;;20.30;99.90;;;;;;4984200;28;20560;-61
2022/08/19 00:16:38;;;;;;;3.38;1.45;;;20.20;99.90;;;;;;4969993;28;20085;-61
2022/08/19 00:19:05;;;;;;;8.90;1.77;;;20.20;99.90;;;;;;4967742;28;20113;-62
2022/08/19 00:21:32;;;;;;;7.03;1.83;;;20.20;99.90;;;;;;4969739;28;20081;-62
2022/08/19 00:23:59;;;;;;;3.80;1.83;;;20.20;99.90;;;;;;4987458;28;20137;-61
2022/08/19 00:26:27;;;;;;;8.27;1.63;;;20.20;99.90;;;;;;4987495;28;20474;-61
2022/08/19 00:28:54;;;;;;;2.70;1.50;;;20.30;99.90;;;;;;4987564;28;20100;-62
2022/08/19 00:31:21;;;;;;;3.58;1.73;;;20.30;99.90;;;;;;4970043;28;20081;-60
2022/08/19 00:33:51;;;;;;;5.13;2.08;;;20.30;99.90;;;;;;4987129;28;20133;-62
2022/08/19 00:36:19;;;;;;;3.13;1.73;;;20.30;99.90;;;;;;4987232;28;20146;-61
2022/08/19 00:38:46;;;;;;;5.28;1.90;;;20.30;99.90;;;;;;4968415;28;20507;-60
2022/08/19 00:41:20;;;;;;;5.05;1.65;;;20.20;99.90;;;;;;4970134;28;20120;-61
2022/08/19 00:44:19;;;;;;;8.30;1.80;;;20.20;99.90;;;;;;4987273;28;20054;-61
2022/08/19 00:46:49;;;;;;;3.35;1.70;;;20.20;99.90;;;;;;4941543;28;20543;-60
2022/08/19 00:49:40;;;;;;;3.03;2.00;;;20.20;99.90;;;;;;4971636;28;20053;-60
2022/08/19 00:52:15;;;;;;;4.53;1.80;;;20.20;99.90;;;;;;4972930;28;20042;-60
2022/08/19 00:54:42;;;;;;;3.35;1.52;;;20.20;99.90;;;;;;4973366;28;20042;-60
2022/08/19 00:57:12;;;;;;;3.47;1.75;;;20.30;99.90;;;;;;4990180;28;20490;-62
2022/08/19 00:59:39;;;;;;;3.53;2.10;;;20.30;99.90;;;;;;4973501;28;20168;-61
2022/08/19 01:02:25;;;;;;;2.78;1.40;;;20.30;99.90;;;;;;4975753;28;20047;-61
2022/08/19 01:04:52;;;;;;;3.95;1.55;;;20.30;99.90;;;;;;4972998;28;20105;-61
2022/08/19 01:07:19;;;;;;;3.58;2.17;;;20.30;99.90;;;;;;4990106;28;20465;-61
2022/08/19 01:09:46;;;;;;;4.35;2.05;;;20.30;99.90;;;;;;4979415;28;20089;-61
2022/08/19 01:12:13;;;;;;;5.75;2.05;;;20.30;99.90;;;;;;4971637;28;20073;-61
2022/08/19 01:14:40;;;;;;;2.55;1.73;;;20.20;99.90;;;;;;4990475;28;20356;-61
2022/08/19 01:17:10;;;;;;;5.50;2.20;;;20.20;99.90;;;;;;4989208;28;20129;-62
2022/08/19 01:19:39;;;;;;;6.30;1.88;;;20.20;99.90;;;;;;4986011;28;20138;-61
2022/08/19 01:22:19;;;;;;;6.18;1.85;;;20.20;99.90;;;;;;4987359;28;20050;-62
2022/08/19 01:24:55;;;;;;;4.47;1.80;;;20.20;99.90;;;;;;4987490;28;20046;-60
2022/08/19 01:27:22;;;;;;;3.83;2.15;;;20.20;99.90;;;;;;4972487;28;20058;-61
2022/08/19 01:29:50;;;;;;;2.70;2.03;;;20.30;99.90;;;;;;4990096;28;20054;-61
2022/08/19 01:32:17;;;;;;;3.65;2.55;;;20.30;99.90;;;;;;4990027;28;20074;-61
2022/08/19 01:35:02;;;;;;;4.40;1.98;;;20.40;99.90;;;;;;4989794;28;20109;-61
2022/08/19 01:37:30;;;;;;;6.70;2.65;;;20.40;99.90;;;;;;4990084;28;20096;-61
2022/08/19 01:39:57;;;;;;;7.05;2.28;;;20.40;99.90;;;;;;4989070;28;20054;-61
2022/08/19 01:42:24;;;;;;;5.40;2.30;;;20.40;99.90;;;;;;4972333;28;20046;-61
2022/08/19 01:44:56;;;;;;;4.30;2.35;;;20.40;99.90;;;;;;4989379;28;20461;-61
2022/08/19 01:47:23;;;;;;;7.88;2.60;;;20.40;99.90;;;;;;4989905;28;20097;-60
2022/08/19 01:49:50;;;;;;;4.30;2.22;;;20.40;99.90;;;;;;4989402;28;20092;-61
2022/08/19 01:52:16;;;;;;;7.05;2.28;;;20.40;99.90;;;;;;4989551;28;20502;-61
2022/08/19 01:54:43;;;;;;;4.43;2.47;;;20.40;99.90;;;;;;4971992;28;20058;-60
2022/08/19 01:57:11;;;;;;;7.53;3.53;;;20.40;99.90;;;;;;4989592;28;20070;-60
2022/08/19 01:59:39;;;;;;;8.68;3.25;;;20.40;99.90;;;;;;4971827;28;20078;-60
2022/08/19 02:02:07;;;;;;;8.55;3.63;;;20.40;99.90;;;;;;4989415;28;20145;-59
2022/08/19 02:04:34;;;;;;;4.15;3.28;;;20.40;99.90;;;;;;4980145;28;20082;-60
2022/08/19 02:07:01;;;;;;;6.07;3.58;;;20.40;99.90;;;;;;4989212;28;20066;-60
2022/08/19 02:09:28;;;;;;;7.38;3.40;;;20.40;99.90;;;;;;4989067;28;20084;-60
2022/08/19 02:11:54;;;;;;;7.22;4.18;;;20.40;99.90;;;;;;4972158;28;20505;-61
2022/08/19 02:14:21;;;;;;;5.72;3.72;;;20.50;99.90;;;;;;4988896;28;20042;-61
2022/08/19 02:16:48;;;;;;;7.40;3.90;;;20.50;99.90;;;;;;4989608;28;20078;-60
2022/08/19 02:19:15;;;;;;;7.10;3.33;;;20.50;99.90;;;;;;4988993;28;20121;-60
2022/08/19 02:21:43;;;;;;;6.32;3.25;;;20.50;99.90;;;;;;4971996;28;20046;-61
2022/08/19 02:24:10;;;;;;;8.35;3.72;;;20.50;99.90;;;;;;4988717;28;20082;-61
2022/08/19 02:26:37;;;;;;;9.27;4.05;;;20.50;99.90;;;;;;4988495;28;20049;-60
2022/08/19 02:29:04;;;;;;;7.72;3.72;;;20.50;99.90;;;;;;4989030;28;20047;-62
2022/08/19 02:31:30;;;;;;;6.03;2.92;;;20.50;99.90;;;;;;4989050;28;20073;-62
2022/08/19 02:33:57;;;;;;;7.15;3.88;;;20.60;99.90;;;;;;4989176;28;20133;-61
2022/08/19 02:36:24;;;;;;;6.00;3.78;;;20.60;99.90;;;;;;4988930;28;20129;-61
2022/08/19 02:38:51;;;;;;;6.93;3.80;;;20.60;99.90;;;;;;4988795;28;20081;-61
2022/08/19 02:41:31;;;;;;;11.40;4.05;;;20.60;99.90;;;;;;4988684;28;20129;-62
2022/08/19 02:44:00;;;;;;;7.07;3.13;;;20.70;99.90;;;;;;4988943;28;20042;-61
2022/08/19 02:46:47;;;;;;;9.90;4.30;;;20.70;99.90;;;;;;4988722;28;20733;-62
2022/08/19 02:49:17;;;;;;;7.88;3.67;;;20.70;99.90;;;;;;4988773;28;20141;-62
2022/08/19 02:51:45;;;;;;;7.80;3.45;;;20.70;99.90;;;;;;4985209;28;20065;-61
2022/08/19 02:54:12;;;;;;;4.88;2.72;;;20.70;99.90;;;;;;4985764;28;20590;-63
2022/08/19 02:56:39;;;;;;;7.68;3.38;;;20.70;99.90;;;;;;4971190;28;20038;-62
2022/08/19 02:59:09;;;;;;;9.80;3.67;;;20.70;99.90;;;;;;4988650;28;20093;-60
2022/08/19 03:01:39;;;;;;;5.95;2.90;;;20.70;99.90;;;;;;4988661;28;20073;-61
2022/08/19 03:04:06;;;;;;;4.93;2.97;;;20.70;99.90;;;;;;4988424;28;20086;-62
2022/08/19 03:06:36;;;;;;;5.93;3.08;;;20.70;99.90;;;;;;4971089;28;20093;-62
2022/08/19 03:09:02;;;;;;;4.00;2.20;;;20.70;99.90;;;;;;4971483;28;20145;-61
2022/08/19 03:11:30;;;;;;;5.25;2.92;;;20.70;99.90;;;;;;4988414;28;20497;-62
2022/08/19 03:13:57;;;;;;;6.82;3.28;;;20.70;99.90;;;;;;4988400;28;20054;-61
2022/08/19 03:16:26;;;;;;;4.55;2.80;;;20.70;99.90;;;;;;4971032;28;20074;-61
2022/08/19 03:18:53;;;;;;;4.45;2.58;;;20.70;99.90;;;;;;4988901;28;20074;-61
2022/08/19 03:21:24;;;;;;;5.35;2.80;;;20.70;99.90;;;;;;4988219;28;20077;-61
2022/08/19 03:23:54;;;;;;;6.63;3.00;;;20.60;99.90;;;;;;4985649;28;20074;-61
2022/08/19 03:26:20;;;;;;;6.72;2.83;;;20.60;99.90;;;;;;4988208;28;20073;-62
2022/08/19 03:28:49;;;;;;;3.88;2.95;;;20.60;99.90;;;;;;4988241;28;20497;-61
2022/08/19 03:31:23;;;;;;;7.47;3.25;;;20.50;99.90;;;;;;4988260;28;20046;-62
2022/08/19 03:34:15;;;;;;;6.05;3.22;;;20.50;99.90;;;;;;4985416;28;20393;-62
2022/08/19 03:36:42;;;;;;;7.75;2.97;;;20.50;99.90;;;;;;4987975;28;20081;-61
2022/08/19 03:39:09;;;;;;;3.72;2.45;;;20.50;99.90;;;;;;4988621;28;20534;-61
2022/08/19 03:41:37;;;;;;;7.13;3.42;;;20.50;99.90;;;;;;4974582;28;20077;-61
2022/08/19 03:44:13;;;;;;;7.13;3.50;;;20.50;99.90;;;;;;4991379;28;20056;-61
2022/08/19 03:46:44;;;;;;;8.63;4.00;;;20.40;99.90;;;;;;4991954;28;20051;-60
2022/08/19 03:49:11;;;;;;;8.75;3.60;;;20.20;99.90;;;;;;4991641;28;20315;-60
2022/08/19 03:51:41;;;;;;;6.43;3.70;;;20.00;99.90;;;;;;4974857;28;20047;-61
2022/08/19 03:54:10;;;;;;;7.47;3.63;;;20.00;99.90;;;;;;4974287;28;20050;-61
2022/08/19 03:56:37;;;;;;;8.98;4.43;;;20.00;99.90;;;;;;4991844;28;20081;-62
2022/08/19 03:59:05;;;;;;;8.18;4.63;;;20.00;99.90;;;;;;4991899;28;20085;-61
2022/08/19 04:01:32;;;;;;;6.63;3.92;;;20.00;99.90;;;;;;4991676;28;20085;-61
2022/08/19 04:04:01;;;;;;;8.93;4.25;;;19.90;99.90;;;;;;4989077;28;20096;-61
2022/08/19 04:06:32;;;;;;;9.45;4.15;;;19.90;99.90;;;;;;4991204;28;20524;-61
2022/08/19 04:09:01;;;;;;;7.47;4.90;;;19.90;99.90;;;;;;4991143;28;20472;-61
2022/08/19 04:11:29;;;;;;;9.77;4.95;;;19.90;99.90;;;;;;4991688;28;20158;-61
2022/08/19 04:14:15;;;;;;;6.38;3.85;;;20.00;99.90;;;;;;4991110;28;20048;-63
2022/08/19 04:16:44;;;;;;;8.13;4.45;;;20.00;99.90;;;;;;4991371;28;20457;-62
2022/08/19 04:19:11;;;;;;;6.18;4.28;;;20.00;99.90;;;;;;4991023;28;20498;-61
2022/08/19 04:21:37;;;;;;;11.63;4.97;;;20.00;99.90;;;;;;4991835;28;20046;-61
2022/08/19 04:24:05;;;;;;;7.97;3.83;;;20.00;99.90;;;;;;4990845;28;20084;-60
2022/08/19 04:26:33;;;;;;;4.15;3.70;;;20.00;99.90;;;;;;4991333;28;20224;-61
2022/08/19 04:29:01;;;;;;;5.75;3.80;;;20.10;99.90;;;;;;4990910;28;20077;-61
2022/08/19 04:31:30;;;;;;;6.65;4.07;;;20.10;99.90;;;;;;4973812;28;20082;-61
2022/08/19 04:33:57;;;;;;;11.27;3.83;;;20.10;99.90;;;;;;4989838;28;20133;-61
2022/08/19 04:36:26;;;;;;;5.30;3.78;;;20.00;99.90;;;;;;4991320;28;20086;-61
2022/08/19 04:38:58;;;;;;;7.05;4.18;;;20.00;99.90;;;;;;4973675;28;20046;-62
2022/08/19 04:44:11;;;;;;;6.82;4.15;;;20.10;99.90;;;;;;4990137;28;20144;-62
2022/08/19 04:46:38;;;;;;;9.88;4.28;;;20.10;99.90;;;;;;4991141;28;20093;-61
2022/08/19 04:49:19;;;;;;;7.05;4.35;;;20.10;99.90;;;;;;4990721;28;20061;-60
2022/08/19 04:51:47;;;;;;;5.70;4.07;;;20.10;99.90;;;;;;4990026;28;20490;-61
2022/08/19 04:54:15;;;;;;;9.45;4.30;;;20.10;99.90;;;;;;4990605;28;20078;-60
2022/08/19 04:57:01;;;;;;;6.55;4.00;;;20.10;99.90;;;;;;4974022;28;20051;-61
2022/08/19 04:59:30;;;;;;;9.45;4.80;;;20.10;99.90;;;;;;4989989;28;20160;-60
2022/08/19 05:01:56;;;;;;;9.50;4.57;;;20.10;99.90;;;;;;4990541;28;20046;-60
2022/08/19 05:04:23;;;;;;;6.03;3.90;;;20.10;99.90;;;;;;4989925;28;20096;-61
2022/08/19 05:06:52;;;;;;;5.53;4.00;;;20.10;99.90;;;;;;4990315;28;20089;-61
2022/08/19 05:09:25;;;;;;;6.30;3.25;;;20.10;99.90;;;;;;4974244;28;20050;-62
2022/08/19 05:11:53;;;;;;;8.95;3.88;;;20.10;99.90;;;;;;4990454;28;20125;-62
2022/08/19 05:14:22;;;;;;;5.38;3.10;;;20.10;99.90;;;;;;4990312;28;20054;-61
2022/08/19 05:16:49;;;;;;;3.63;2.05;;;20.10;99.90;;;;;;4989949;28;20086;-63
2022/08/19 05:22:34;;;;;;;4.90;2.65;;;19.90;99.90;;;;;;4990166;28;20081;-61
2022/08/19 05:25:06;;;;;;;5.00;2.53;;;19.90;99.90;;;;;;4989913;28;20082;-61
2022/08/19 05:27:40;;;;;;;5.40;2.50;;;19.80;99.90;;;;;;4989528;28;20043;-60
2022/08/19 05:30:08;;;;;;;3.30;1.98;;;19.80;99.90;;;;;;4972534;28;20548;-60
2022/08/19 05:32:34;;;;;;;4.65;2.47;;;19.80;99.90;;;;;;4989673;28;20120;-61
2022/08/19 05:35:01;;;;;;;4.78;2.42;;;19.80;99.90;;;;;;4989763;28;20042;-62
2022/08/19 05:37:28;;;;;;;4.93;2.33;;;19.90;99.90;;;;;;4989749;28;20125;-61
2022/08/19 05:39:55;;;;;;;5.15;1.70;;;19.80;99.90;;;;;;4989844;28;20096;-62
2022/08/19 05:42:22;;;;;;;3.75;2.35;;;19.80;99.90;;;;;;4972316;28;20046;-61
2022/08/19 05:44:50;;;;;;;8.13;2.78;;;19.80;99.90;;;;;;4989796;28;20086;-62
2022/08/19 05:47:19;;;;;;;8.18;1.80;;;19.80;99.90;;;;;;4972553;28;20054;-62
2022/08/19 05:49:46;;;;;;;1.83;1.30;;;19.80;99.90;;;;;;4989645;28;20518;-62
2022/08/19 05:52:15;;;;;;;5.07;1.80;;;19.80;99.90;;;;;;4989528;28;20077;-61
2022/08/19 05:54:47;;;;;;;2.88;1.48;;;19.80;99.90;;;;;;4989491;28;20042;-61
2022/08/19 05:57:18;;;;;;;1.70;1.00;;;20.00;99.90;;;;;;4989070;28;20493;-62
2022/08/19 05:59:50;;;;;;;2.70;1.17;;;20.00;99.90;;;;;;4971891;28;20568;-62
2022/08/19 06:02:18;;;;;;;3.60;1.20;;;20.00;99.90;;;;;;4988940;28;20065;-61
2022/08/19 06:04:45;;;;;;;2.22;1.00;;;20.10;99.90;;;;;;4989176;28;20061;-62
2022/08/19 06:07:12;;;;;;;10.68;1.30;;;20.20;99.90;;;;;;4986158;28;20125;-62
2022/08/19 06:09:39;;;;;;;2.58;0.70;;;20.20;99.90;;;;;;4989372;28;20129;-61
2022/08/19 06:12:09;;;;;;;1.88;0.88;;;20.30;99.90;;;;;;4989432;28;20053;-62
2022/08/19 06:14:36;;;;;;;1.80;0.60;;;20.30;99.90;;;;;;4989523;28;20078;-61
2022/08/19 06:17:07;;;;;;;2.53;0.85;;;20.30;99.90;;;;;;4988850;28;20104;-62
2022/08/19 06:19:34;;;;;;;2.05;0.70;;;20.30;99.90;;;;;;4989421;28;20050;-62
2022/08/19 06:22:07;;;;;;;3.33;0.60;;;20.40;99.90;;;;;;4988906;28;20185;-61
2022/08/19 06:24:34;;;;;;;0.82;0.45;;;20.40;99.90;;;;;;4971439;28;20046;-62
2022/08/19 06:27:01;;;;;;;1.73;0.80;;;20.40;99.90;;;;;;4988820;28;20081;-61
2022/08/19 06:29:29;;;;;;;1.15;0.57;;;20.30;99.90;;;;;;4988728;28;20128;-60
2022/08/19 06:31:57;;;;;;;1.73;0.60;;;20.30;99.90;;;;;;4988954;28;20073;-61
2022/08/19 06:34:27;;;;;;;2.80;0.65;;;20.30;99.90;;;;;;4971236;28;20086;-61
2022/08/19 06:36:53;;;;;;;5.00;0.73;;;20.30;99.90;;;;;;4988654;28;20144;-61
2022/08/19 06:39:24;;;;;;;2.10;0.47;;;20.30;99.90;;;;;;4988666;28;20085;-61
2022/08/19 06:41:52;;;;;;;1.83;0.70;;;20.40;99.90;;;;;;4988747;28;20089;-62
2022/08/19 06:44:25;;;;;;;1.88;0.50;;;20.30;99.90;;;;;;4988113;28;20100;-61
2022/08/19 06:46:52;;;;;;;2.08;0.68;;;20.30;99.90;;;;;;4988222;28;20493;-61
2022/08/19 06:49:21;;;;;;;3.38;0.93;;;20.40;99.90;;;;;;4988367;28;20050;-62
2022/08/19 06:51:48;;;;;;;2.28;0.68;;;20.40;99.90;;;;;;4988311;28;20050;-62
2022/08/19 06:54:17;;;;;;;3.47;1.05;;;20.30;99.90;;;;;;4988278;28;20428;-62
2022/08/19 06:56:46;;;;;;;1.67;0.63;;;20.20;99.90;;;;;;4988457;28;20113;-62
2022/08/19 06:59:14;;;;;;;1.65;0.60;;;20.20;99.90;;;;;;4988483;28;20128;-62
2022/08/19 07:01:55;;;;;;;3.13;0.50;;;20.30;99.90;;;;;;4988176;28;20050;-62
2022/08/19 07:04:24;;;;;;;6.82;2.25;;;20.30;99.90;;;;;;4988154;28;20093;-62
2022/08/19 07:07:05;;;;;;;3.65;0.90;;;20.30;99.90;;;;;;4988404;28;20082;-61
2022/08/19 07:09:46;;;;;;;3.38;0.80;;;20.30;99.90;;;;;;4964464;28;20383;-62
2022/08/19 07:12:26;;;;;;;1.80;0.35;;;20.20;99.90;;;;;;4987671;28;20070;-62
2022/08/19 07:14:53;;;;;;;7.20;0.60;;;20.30;99.90;;;;;;4642614;28;10000267;-62
2022/08/19 07:17:20;;;;;;;1.92;0.57;;;20.30;99.90;;;;;;4989567;28;20060;-62
2022/08/19 07:19:47;;;;;;;2.58;0.70;;;20.40;99.90;;;;;;4988914;28;20058;-61
2022/08/19 07:22:14;;;;;;;5.75;0.68;;;20.40;99.90;;;;;;4972340;28;20073;-62
2022/08/19 07:24:43;;;;;;;3.13;0.95;;;20.50;99.90;;;;;;4989329;28;20129;-62
2022/08/19 07:27:17;;;;;;;4.03;1.02;;;20.50;99.90;;;;;;4988382;28;20057;-62
2022/08/19 07:29:50;;;;;;;2.90;0.88;;;20.40;99.90;;;;;;4988304;28;20054;-61
2022/08/19 07:32:26;;;;;;;2.87;0.70;;;20.40;99.90;;;;;;4989316;28;20153;-60
2022/08/19 07:34:53;;;;;;;8.43;0.80;;;20.40;99.90;;;;;;4988403;28;20050;-61
2022/08/19 07:37:20;;;;;;;1.60;1.02;;;20.30;99.90;;;;;;4989177;28;20058;-61
2022/08/19 07:39:46;;;;;;;1.48;0.40;;;20.30;99.90;;;;;;4989145;28;20077;-61
2022/08/19 07:42:14;;;;;;;4.93;0.70;;;20.40;99.90;;;;;;4986814;28;20125;-61
2022/08/19 07:44:41;;;;;;;3.40;0.93;;;20.40;99.90;;;;;;4964683;28;20050;-62
2022/08/19 07:47:16;;;;;;;3.05;1.45;;;20.50;99.90;;;;;;4988498;28;20498;-61
2022/08/19 07:50:04;;;;;;;1.50;0.60;;;20.60;99.90;;;;;;4988679;28;20060;-62
2022/08/19 07:52:34;;;;;;;1.85;0.90;;;20.60;99.90;;;;;;4970886;28;20046;-61
2022/08/19 07:55:03;;;;;;;2.42;0.50;;;20.70;99.90;;;;;;4978300;28;21081;-61
2022/08/19 07:57:30;;;;;;;1.05;0.60;;;20.70;99.90;;;;;;4982866;28;20081;-61
2022/08/19 07:59:57;;;;;;;2.47;0.60;;;20.60;99.90;;;;;;4970668;28;20061;-63
2022/08/19 08:02:24;;;;;;;1.63;0.55;;;20.70;99.90;;;;;;4987145;28;20137;-61
2022/08/19 08:10:22;;;;;;;7.53;1.25;;;21.00;99.90;;;;;;4981618;28;20607;-61
2022/08/19 08:12:50;;;;;;;3.28;0.60;;;21.00;99.90;;;;;;4980982;28;20132;-61
2022/08/19 08:15:37;;;;;;;3.45;0.70;;;21.10;99.90;;;;;;4986107;28;20050;-60
2022/08/19 08:18:09;;;;;;;3.25;0.88;;;21.20;99.90;;;;;;4985638;28;20571;-61
2022/08/19 08:20:36;;;;;;;2.30;0.73;;;21.30;99.90;;;;;;4986537;28;20046;-60
2022/08/19 08:25:49;;;;;;;0.52;0.40;;;21.30;99.90;;;;;;4980953;28;20402;-60
2022/08/19 08:28:17;;;;;;;1.67;0.55;;;21.40;99.90;;;;;;4970645;28;20105;-62
2022/08/19 08:30:45;;;;;;;3.38;0.95;;;21.40;99.90;;;;;;4987993;28;20076;-60
2022/08/19 08:33:13;;;;;;;4.93;0.70;;;21.50;99.90;;;;;;4987559;28;20086;-62
2022/08/19 08:35:45;;;;;;;4.40;0.80;;;21.70;99.90;;;;;;4988176;28;20069;-61
2022/08/19 08:38:12;;;;;;;3.28;1.33;;;21.60;99.90;;;;;;4988054;28;20053;-62
2022/08/19 08:40:44;;;;;;;2.20;0.60;;;21.70;99.90;;;;;;4988317;28;20042;-64
2022/08/19 08:43:32;;;;;;;4.32;0.75;;;21.70;99.90;;;;;;4970001;28;20050;-60
2022/08/19 08:46:07;;;;;;;1.17;0.55;;;21.70;99.90;;;;;;4980763;28;20054;-60
2022/08/19 08:48:41;;;;;;;1.17;0.57;;;21.70;99.90;;;;;;4970895;28;20061;-61
2022/08/19 08:51:18;;;;;;;1.33;0.57;;;21.60;99.90;;;;;;4970219;28;20093;-61
2022/08/19 08:53:47;;;;;;;3.10;0.90;;;21.50;99.90;;;;;;4987603;28;20053;-61
2022/08/19 08:56:14;;;;;;;5.32;0.82;;;21.50;99.90;;;;;;4970556;28;20069;-60
2022/08/19 08:59:03;;;;;;;1.83;0.73;;;21.50;99.90;;;;;;4970360;28;20054;-60
2022/08/19 09:01:30;;;;;;;2.17;0.98;;;21.60;99.90;;;;;;4970311;28;20050;-61
2022/08/19 09:03:57;;;;;;;1.85;0.57;;;21.60;99.90;;;;;;4970055;28;20054;-61
2022/08/19 09:06:36;;;;;;;3.05;0.73;;;21.70;99.90;;;;;;4970697;28;20050;-60
2022/08/19 09:09:34;;;;;;;6.30;1.23;;;21.70;99.90;;;;;;4970814;28;20045;-61
2022/08/19 09:12:27;;;;;;;5.10;0.75;;;21.40;99.90;;;;;;4970317;28;20114;-62
2022/08/19 09:14:59;;;;;;;2.92;0.63;;;21.40;99.90;;;;;;4969693;28;20058;-60
2022/08/19 09:17:30;;;;;;;3.58;0.70;;;21.40;99.90;;;;;;4970140;28;20133;-60
2022/08/19 09:20:08;;;;;;;7.30;1.55;;;21.50;99.90;;;;;;4970062;28;20651;-60
2022/08/19 09:22:39;;;;;;;4.28;0.60;;;21.70;99.90;;;;;;4979857;28;20049;-60
2022/08/19 09:25:08;;;;;;;2.22;0.70;;;21.90;99.90;;;;;;4986885;28;20069;-61
2022/08/19 09:27:37;;;;;;;7.55;1.65;;;21.80;99.90;;;;;;4986413;28;20057;-62
2022/08/19 09:30:14;;;;;;;9.63;1.67;;;21.90;99.90;;;;;;4986396;28;20560;-61
2022/08/19 09:32:42;;;;;;;1.93;0.77;;;21.90;99.90;;;;;;4969695;28;20065;-61
2022/08/19 09:35:09;;;;;;;4.45;1.35;;;21.90;99.90;;;;;;4986547;28;20077;-61
2022/08/19 09:37:37;;;;;;;5.45;1.10;;;22.00;99.90;;;;;;4986370;28;20050;-61
2022/08/19 09:40:06;;;;;;;3.17;0.93;;;22.10;99.90;;;;;;4986820;28;20738;-60
2022/08/19 09:42:34;;;;;;;3.90;1.50;;;22.20;99.90;;;;;;4986612;28;20092;-60
2022/08/19 09:45:03;;;;;;;2.05;0.70;;;22.40;99.90;;;;;;4986224;28;20517;-60
2022/08/19 09:47:35;;;;;;;8.20;1.02;;;22.40;99.90;;;;;;4986702;28;20218;-61
2022/08/19 09:50:07;;;;;;;2.20;0.60;;;22.40;99.90;;;;;;4986338;28;20081;-62
2022/08/19 09:52:36;;;;;;;5.20;1.95;;;22.60;99.90;;;;;;4953090;28;20046;-60
2022/08/19 09:55:08;;;;;;;2.25;0.55;;;23.00;99.90;;;;;;4969519;28;20057;-60
2022/08/19 09:57:35;;;;;;;2.75;0.82;;;23.00;99.90;;;;;;4986542;28;20046;-61
2022/08/19 10:00:04;;;;;;;4.88;1.25;;;22.90;99.90;;;;;;4986375;28;20143;-60
2022/08/19 10:02:31;;;;;;;3.20;0.98;;;22.60;99.90;;;;;;4969178;28;20054;-60
2022/08/19 10:07:52;;;;;;;3.45;1.08;;;22.60;99.90;;;;;;4973295;28;20054;-60
2022/08/19 10:10:22;;;;;;;1.75;0.80;;;22.80;99.90;;;;;;4983376;28;20489;-60
2022/08/19 10:12:50;;;;;;;3.40;0.95;;;22.90;99.90;;;;;;4985846;28;20089;-61
2022/08/19 10:15:20;;;;;;;2.42;0.70;;;22.90;99.90;;;;;;4985655;28;20066;-60
2022/08/19 10:17:55;;;;;;;3.50;1.08;;;23.20;99.90;;;;;;4986300;28;20042;-60
2022/08/19 10:20:24;;;;;;;5.65;1.20;;;23.30;99.90;;;;;;4985451;28;20125;-61
2022/08/19 10:22:51;;;;;;;3.25;1.02;;;23.30;99.90;;;;;;4986215;28;20046;-61
2022/08/19 10:25:19;;;;;;;2.03;0.60;;;23.20;99.70;;;;;;4985399;28;20505;-61
2022/08/19 10:27:45;;;;;;;3.15;0.85;;;23.10;99.90;;;;;;4981344;28;20074;-60
2022/08/19 10:30:17;;;;;;;4.20;1.10;;;22.80;99.90;;;;;;4986080;28;20435;-60
2022/08/19 10:32:45;;;;;;;5.35;1.15;;;22.60;99.90;;;;;;4985594;28;20494;-59
2022/08/19 10:35:13;;;;;;;2.97;0.70;;;22.60;99.90;;;;;;4968726;28;20092;-60
2022/08/19 10:37:47;;;;;;;4.28;0.80;;;22.40;99.90;;;;;;4985692;28;20125;-60
2022/08/19 10:40:23;;;;;;;5.50;1.23;;;22.20;99.90;;;;;;4985744;28;20054;-60
2022/08/19 10:42:50;;;;;;;4.15;1.10;;;22.10;99.90;;;;;;4968064;28;20146;-60
2022/08/19 10:45:17;;;;;;;9.13;2.25;;;22.30;99.90;;;;;;4985994;28;20061;-60
2022/08/19 10:47:46;;;;;;;8.20;1.10;;;22.30;99.90;;;;;;4952392;28;20061;-61
2022/08/19 10:53:05;;;;;;;8.35;1.58;;;22.20;99.90;;;;;;4985199;28;20112;-60
2022/08/19 10:58:24;;;;;;;5.55;1.50;;;22.20;99.90;;;;;;4984674;28;20054;-60
2022/08/19 11:00:53;;;;;;;5.10;1.70;;;22.30;99.90;;;;;;4985332;28;20141;-59
2022/08/19 11:03:21;;;;;;;4.63;1.30;;;22.40;99.90;;;;;;4967255;28;20065;-60
2022/08/19 11:06:00;;;;;;;9.57;1.40;;;22.30;99.90;;;;;;4985293;28;20100;-61
2022/08/19 11:08:27;;;;;;;3.75;1.83;;;22.30;99.90;;;;;;4967281;28;20785;-60
2022/08/19 11:11:00;;;;;;;6.97;1.50;;;22.30;99.90;;;;;;4967700;28;20326;-60
2022/08/19 11:13:28;;;;;;;6.05;1.20;;;22.20;99.90;;;;;;4985064;28;20457;-61
2022/08/19 11:16:04;;;;;;;7.72;1.33;;;22.10;99.90;;;;;;4968103;28;20042;-63
2022/08/19 11:18:38;;;;;;;8.20;1.60;;;21.90;99.90;;;;;;4984874;28;20050;-61
2022/08/19 11:21:34;;;;;;;5.55;1.15;;;21.90;99.90;;;;;;4985313;28;20070;-61
2022/08/19 11:24:10;;;;;;;8.50;1.33;;;22.20;99.90;;;;;;4984606;28;20077;-61
2022/08/19 11:26:37;;;;;;;8.45;1.30;;;22.40;99.90;;;;;;4960096;28;20054;-60
2022/08/19 11:29:05;;;;;;;4.47;1.08;;;22.50;99.90;;;;;;4984880;28;20387;-60
2022/08/19 11:31:34;;;;;;;3.78;1.67;;;22.30;99.90;;;;;;4985397;28;20050;-61
2022/08/19 11:34:03;;;;;;;3.55;1.25;;;22.50;99.90;;;;;;4967583;28;20449;-61
2022/08/19 11:36:32;;;;;;;5.00;1.17;;;22.80;99.90;;;;;;4985013;28;20089;-61
2022/08/19 11:39:00;;;;;;;2.90;1.48;;;22.80;99.90;;;;;;4984940;28;20537;-61
2022/08/19 11:41:27;;;;;;;7.03;2.08;;;22.90;99.90;;;;;;4985348;28;20092;-61
2022/08/19 11:43:55;;;;;;;4.78;1.27;;;22.90;99.90;;;;;;4985239;28;20065;-61
2022/08/19 11:46:23;;;;;;;6.85;1.88;;;22.90;99.90;;;;;;4967844;28;20054;-62
2022/08/19 11:48:50;;;;;;;6.00;2.15;;;22.90;99.90;;;;;;4967612;28;20061;-61
2022/08/19 11:51:20;;;;;;;8.88;1.60;;;23.00;99.90;;;;;;4984765;28;20054;-61
2022/08/19 11:53:48;;;;;;;8.73;1.73;;;22.90;99.90;;;;;;4981967;28;20497;-60
2022/08/19 11:56:15;;;;;;;8.27;2.08;;;23.00;99.90;;;;;;4985080;28;20109;-60
2022/08/19 11:58:41;;;;;;;8.38;1.83;;;23.00;99.90;;;;;;4967055;28;20073;-61
2022/08/19 12:01:09;;;;;;;7.70;1.67;;;22.90;98.40;;;;;;4969654;28;20581;-60
2022/08/19 12:03:37;;;;;;;4.90;1.48;;;22.80;98.30;;;;;;4988079;28;20494;-62
2022/08/19 12:06:06;;;;;;;12.50;3.03;;;22.90;99.40;;;;;;4984174;28;20141;-61
2022/08/19 12:08:32;;;;;;;5.93;1.65;;;23.10;97.80;;;;;;4988163;28;20078;-61
2022/08/19 12:11:01;;;;;;;4.85;1.63;;;23.20;97.20;;;;;;4988355;28;20081;-61
2022/08/19 12:13:30;;;;;;;8.52;2.08;;;23.40;96.70;;;;;;4971125;28;20061;-57
2022/08/19 12:15:58;;;;;;;9.52;2.50;;;23.50;93.90;;;;;;4988127;28;20105;-60
2022/08/19 12:18:24;;;;;;;15.55;2.42;;;23.50;93.40;;;;;;4970896;28;20508;-59
2022/08/19 12:20:52;;;;;;;10.20;2.33;;;23.40;93.60;;;;;;4988107;28;20082;-60
2022/08/19 12:23:19;;;;;;;10.05;1.55;;;23.30;92.80;;;;;;4970759;28;20109;-60
2022/08/19 12:25:51;;;;;;;9.45;2.40;;;23.40;93.00;;;;;;4987243;28;20100;-61
2022/08/19 12:28:25;;;;;;;10.18;1.67;;;23.40;90.50;;;;;;4988019;28;20134;-62
2022/08/19 12:30:52;;;;;;;9.50;1.75;;;23.50;91.00;;;;;;4970127;28;20498;-60
2022/08/19 12:33:19;;;;;;;10.68;2.20;;;23.60;91.90;;;;;;4987850;28;20054;-59
2022/08/19 12:35:46;;;;;;;4.60;1.65;;;23.60;91.40;;;;;;4969696;28;20101;-60
2022/08/19 12:38:14;;;;;;;10.75;2.05;;;23.40;90.70;;;;;;4987269;28;20126;-59
2022/08/19 12:40:41;;;;;;;8.98;2.42;;;23.40;91.70;;;;;;4987709;28;20089;-61
2022/08/19 12:43:08;;;;;;;14.40;2.10;;;23.20;89.20;;;;;;4970256;28;20133;-60
2022/08/19 12:45:35;;;;;;;7.38;1.75;;;23.30;90.20;;;;;;4987307;28;20046;-60
2022/08/19 12:48:04;;;;;;;5.78;1.38;;;23.30;87.20;;;;;;4976792;28;20296;-60
2022/08/19 12:50:51;;;;;;;7.18;1.70;;;23.10;83.00;;;;;;4983201;28;20139;-60
2022/08/19 12:53:17;;;;;;;6.80;2.03;;;23.00;84.70;;;;;;4971796;28;20136;-60
2022/08/19 12:55:44;;;;;;;10.18;2.10;;;23.20;85.60;;;;;;4965276;28;20565;-60
2022/08/19 12:58:12;;;;;;;12.57;2.60;;;23.30;81.60;;;;;;4987100;28;20081;-59
2022/08/19 13:00:39;;;;;;;7.32;2.50;;;23.30;83.50;;;;;;4973654;28;20136;-63
2022/08/19 13:03:06;;;;;;;9.07;2.60;;;23.50;76.50;;;;;;4983498;28;20042;-61
2022/08/19 13:05:33;;;;;;;7.78;2.08;;;23.60;77.10;;;;;;4969650;28;20101;-61
2022/08/19 13:08:01;;;;;;;9.68;1.77;;;23.90;73.50;;;;;;4987374;28;20046;-62
2022/08/19 13:10:34;;;;;;;6.25;1.98;;;24.00;70.30;;;;;;4987157;28;20133;-61
2022/08/19 13:13:06;;;;;;;12.70;1.85;;;23.80;72.30;;;;;;4967549;28;20050;-65
2022/08/19 13:15:34;;;;;;;8.02;2.17;;;23.90;71.10;;;;;;4986931;28;20096;-60
2022/08/19 13:18:01;;;;;;;6.93;1.40;;;24.00;73.50;;;;;;4986441;28;20525;-60
2022/08/19 13:20:28;;;;;;;7.47;1.67;;;24.00;71.90;;;;;;4985152;28;20104;-60
2022/08/19 13:22:56;;;;;;;8.18;1.85;;;24.20;70.90;;;;;;4968359;28;20050;-59